Sycamore (728, 920) Station Data

Red Flag Warning: No
Fire Weather Zone: 250
SDGE Region: Beach Cities
Lat/Lon: 32.914/-117.03

Observations

Time Wind Speed/Gust Temp(F) RH Fuel Moist Fuel Temp(F) Dewpt(F) Tmax(F) Tmin(F) Accum Precip 10-min Precip SL Press(mb)
6/27 5:00pm 276 4 G 8 86° 24% - - 45° 94.9° 72.3° - - -
6/27 4:50pm 276 5 G 9 86° 22% - - 43° 94.9° 72.3° - - -
6/27 4:40pm 275 4 G 10 87° 23% - - 45° 94.9° 72.3° - - -
6/27 4:30pm 254 5 G 10 87° 23% - - 44° 94.9° 72.3° - - -
6/27 4:20pm 264 5 G 9 87° 21% - - 43° 94.9° 72.3° - - -
6/27 4:10pm 270 4 G 9 87° 23% - - 45° 94.9° 72.3° - - -
6/27 4:00pm 259 5 G 9 87° 22% - - 44° 94.9° 72.3° - - -
6/27 3:50pm 275 5 G 11 86° 24% - - 45° 94.9° 72.3° - - -
6/27 3:40pm 256 5 G 11 86° 23% - - 45° 94.9° 72.3° - - -
6/27 3:30pm 271 6 G 11 86° 25% - - 46° 94.9° 72.3° - - -
6/27 3:20pm 269 5 G 11 86° 26% - - 48° 94.9° 72.3° - - -
6/27 3:10pm 266 6 G 12 87° 26% - - 48° 94.9° 72.3° - - -
6/27 3:00pm 265 7 G 13 87° 26% - - 48° 94.9° 72.3° - - -
6/27 2:50pm 272 8 G 14 87° 26% - - 47° 94.9° 72.3° - - -
6/27 2:40pm 267 7 G 14 88° 26% - - 49° 94.9° 72.3° - - -
6/27 2:30pm 247 7 G 13 89° 25% - - 49° 94.9° 72.3° - - -
6/27 2:20pm 244 7 G 12 90° 26% - - 50° 94.9° 72.3° - - -
6/27 2:10pm 258 7 G 13 90° 24% - - 49° 94.9° 72.3° - - -
6/27 2:00pm 261 7 G 12 90° 25% - - 50° 94.9° 72.3° - - -
6/27 1:50pm 268 8 G 15 90° 25% - - 50° 94.9° 72.3° - - -
6/27 1:40pm 278 7 G 14 90° 25% - - 50° 94.9° 72.3° - - -
6/27 1:30pm 243 7 G 15 92° 23% - - 49° 94.9° 72.3° - - -
6/27 1:20pm 254 6 G 12 93° 22% - - 48° 94.9° 72.3° - - -
6/27 1:10pm 247 7 G 12 92° 23% - - 49° 94.9° 72.3° - - -
6/27 1:00pm 241 7 G 12 92° 23% - - 49° 94.9° 72.3° - - -
6/27 12:50pm 251 7 G 13 92° 23% - - 49° 94.9° 72.3° - - -
6/27 12:40pm 262 7 G 13 92° 21% - - 46° 94.9° 72.3° - - -
6/27 12:30pm 273 5 G 10 94° 19% - - 46° 94.9° 72.3° - - -
6/27 12:20pm 267 5 G 15 93° 16% - - 41° 94.5° 72.3° - - -
6/27 12:10pm 264 5 G 12 93° 16% - - 40° 94.5° 72.3° - - -
6/27 12:00pm 240 6 G 11 93° 19% - - 44° 93.4° 72.3° - - -
6/27 11:50am 216 6 G 13 92° 18% - - 43° 92.9° 72.3° - - -
6/27 11:40am 212 6 G 12 91° 18% - - 42° 92.1° 72.3° - - -
6/27 11:30am 216 7 G 11 91° 20% - - 44° 92.1° 72.3° - - -
6/27 11:20am 235 6 G 10 91° 19% - - 43° 91.9° 72.3° - - -
6/27 11:10am 232 6 G 12 91° 20% - - 44° 91.8° 72.3° - - -
6/27 11:00am 242 5 G 10 90° 17% - - 40° 91.4° 72.3° - - -
6/27 10:50am 251 4 G 10 90° 18% - - 41° 91.3° 72.3° - - -
6/27 10:40am 228 5 G 10 89° 18% - - 41° 89.8° 72.3° - - -
6/27 10:30am 226 5 G 9 89° 19% - - 41° 89.8° 72.3° - - -
6/27 10:20am 241 5 G 8 88° 19% - - 40° 89.8° 72.3° - - -
6/27 10:10am 243 5 G 10 88° 19% - - 40° 89.8° 72.3° - - -
6/27 10:00am 256 5 G 9 88° 19% - - 41° 89.8° 72.3° - - -
6/27 9:50am 297 2 G 6 89° 18% - - 40° 89.8° 72.3° - - -
6/27 9:40am 314 4 G 8 88° 17% - - 38° 88.6° 72.3° - - -
6/27 9:30am 330 4 G 7 87° 16% - - 36° 87.7° 72.3° - - -
6/27 9:20am 344 4 G 7 86° 16% - - 36° 86.9° 72.3° - - -
6/27 9:10am 321 3 G 6 86° 16% - - 35° 86.9° 72.3° - - -
6/27 9:00am 335 3 G 5 86° 16% - - 35° 86.9° 72.3° - - -
6/27 8:50am 336 2 G 4 86° 17% - - 36° 86.9° 72.3° - - -
6/27 8:40am 341 2 G 4 86° 17% - - 36° 86.6° 72.3° - - -
6/27 8:30am 213 1 G 3 85° 15% - - 32° 85.7° 72.3° - - -
6/27 8:20am 160 2 G 3 84° 15% - - 31° 84.5° 72.3° - - -
6/27 8:10am 130 2 G 3 83° 16% - - 32° 83.7° 72.3° - - -
6/27 8:00am 119 2 G 3 83° 14% - - 29° 83.5° 72.3° - - -
6/27 7:50am 121 3 G 4 82° 15% - - 30° 82.6° 72.3° - - -
6/27 7:40am 128 2 G 4 81° 16% - - 30° 82.6° 72.3° - - -
6/27 7:30am 124 2 G 4 82° 14% - - 28° 82.6° 72.3° - - -
6/27 7:20am 70 1 G 2 81° 16% - - 31° 82.1° 72.3° - - -
6/27 7:10am 85 3 G 5 79° 17% - - 30° 81° 72.3° - - -
6/27 7:00am 119 3 G 5 77° 19% - - 31° 81° 72.3° - - -
6/27 6:50am 104 2 G 4 76° 20% - - 32° 81° 72.3° - - -
6/27 6:40am 123 4 G 6 75° 20% - - 31° 81° 72.3° - - -
6/27 6:30am 135 6 G 7 74° 23% - - 33° 81° 72.3° - - -
6/27 6:20am 144 6 G 7 73° 26% - - 36° 81° 72.3° - - -
6/27 6:10am 151 5 G 7 74° 26% - - 36° 81° 72.7° - - -
6/27 6:00am 148 7 G 8 73° 27% - - 37° 81° 72.7° - - -
6/27 5:50am 138 7 G 8 76° 18% - - 30° 81° 74.2° - - -
6/27 5:40am 139 7 G 8 77° 18% - - 29° 81° 74.6° - - -
6/27 5:30am 133 7 G 7 77° 17% - - 29° 81° 74.6° - - -
6/27 5:20am 132 6 G 7 76° 20% - - 32° 81° 74.6° - - -
6/27 5:10am 121 6 G 7 76° 19% - - 31° 81° 74.6° - - -
6/27 5:00am 134 6 G 7 76° 21% - - 33° 81° 74.6° - - -
6/27 4:50am 137 7 G 8 76° 22% - - 35° 81° 74.6° - - -
6/27 4:40am 134 5 G 6 77° 20% - - 33° 81° 74.6° - - -
6/27 4:30am 129 3 G 5 77° 20% - - 33° 81° 74.6° - - -
6/27 4:20am 99 3 G 5 77° 20% - - 33° 81° 74.6° - - -
6/27 4:10am 44 2 G 3 77° 22% - - 35° 81° 74.6° - - -
6/27 4:00am 39 2 G 3 77° 22% - - 35° 81° 74.6° - - -
6/27 3:50am 49 2 G 4 77° 21% - - 33° 81° 74.6° - - -
6/27 3:40am 46 2 G 3 76° 22% - - 33° 81° 74.6° - - -
6/27 3:30am 13 2 G 3 75° 26% - - 38° 81° 74.6° - - -
6/27 3:20am 12 2 G 3 76° 25% - - 37° 81° 74.6° - - -
6/27 3:10am 330 2 G 3 76° 25% - - 38° 81° 74.6° - - -
6/27 3:00am 92 2 G 5 78° 20% - - 34° 81° 74.6° - - -
6/27 2:50am 134 6 G 6 79° 19% - - 34° 81° 74.6° - - -
6/27 2:40am 136 6 G 6 80° 19% - - 33° 81° 74.6° - - -
6/27 2:30am 136 6 G 7 79° 21% - - 35° 81° 74.6° - - -
6/27 2:20am 134 7 G 8 77° 23% - - 37° 81° 74.6° - - -
6/27 2:10am 143 8 G 8 76° 30% - - 42° 81° 74.6° - - -
6/27 2:00am 148 8 G 9 75° 32% - - 44° 81° 74.8° - - -
6/27 1:50am 158 9 G 10 76° 31% - - 43° 81° 74.8° - - -
6/27 1:40am 158 10 G 11 76° 30% - - 42° 81° 75.2° - - -
6/27 1:30am 151 8 G 9 77° 27% - - 41° 81° 76.7° - - -
6/27 1:20am 153 7 G 8 77° 28% - - 41° 81° 76.8° - - -
6/27 1:10am 158 7 G 8 78° 27% - - 41° 81° 77.1° - - -
6/27 1:00am 162 7 G 8 79° 25% - - 40° 81° 77.1° - - -
6/27 12:50am 142 3 G 6 79° 25% - - 40° 81° 78.7° - - -
6/27 12:40am 159 2 G 4 80° 24% - - 40° 81° 79.3° - - -
6/27 12:30am 151 5 G 6 81° 23% - - 39° 81° 80.1° - - -
6/27 12:20am 143 6 G 7 81° 23% - - 40° 80.9° 80.1° - - -
6/27 12:10am 145 6 G 7 81° 23% - - 39° 80.9° 80.1° - - -
6/27 12:00am 139 6 G 7 81° 22% - - 39° 97.5° 70.4° - - -
6/26 11:50pm 136 6 G 8 81° 22% - - 39° 97.5° 70.4° - - -
6/26 11:40pm 127 7 G 8 81° 21% - - 38° 97.5° 70.4° - - -
6/26 11:30pm 118 7 G 8 82° 22% - - 39° 97.5° 70.4° - - -
6/26 11:20pm 82 4 G 6 81° 19% - - 35° 97.5° 70.4° - - -
6/26 11:10pm 36 4 G 5 80° 23% - - 39° 97.5° 70.4° - - -
6/26 11:00pm 352 4 G 5 81° 21% - - 37° 97.5° 70.4° - - -
6/26 10:50pm 340 4 G 6 80° 25% - - 41° 97.5° 70.4° - - -
6/26 10:40pm 333 5 G 7 80° 26% - - 42° 97.5° 70.4° - - -
6/26 10:30pm 337 5 G 6 80° 26% - - 42° 97.5° 70.4° - - -
6/26 10:20pm 344 4 G 6 80° 27% - - 43° 97.5° 70.4° - - -
6/26 10:10pm 356 5 G 6 79° 28% - - 44° 97.5° 70.4° - - -
6/26 10:00pm 344 5 G 7 80° 28% - - 44° 97.5° 70.4° - - -
6/26 9:50pm 334 5 G 7 80° 27% - - 43° 97.5° 70.4° - - -
6/26 9:40pm 324 4 G 5 79° 30% - - 45° 97.5° 70.4° - - -
6/26 9:30pm 323 3 G 6 79° 31% - - 45° 97.5° 70.4° - - -
6/26 9:20pm 296 4 G 5 80° 27% - - 42° 97.5° 70.4° - - -
6/26 9:10pm 274 2 G 4 80° 26% - - 42° 97.5° 70.4° - - -
6/26 9:00pm 213 3 G 4 80° 28% - - 44° 97.5° 70.4° - - -
6/26 8:50pm 224 3 G 5 80° 26% - - 43° 97.5° 70.4° - - -
6/26 8:40pm 242 3 G 5 82° 24% - - 41° 97.5° 70.4° - - -
6/26 8:30pm 277 3 G 3 83° 23% - - 41° 97.5° 70.4° - - -
6/26 8:20pm 284 3 G 4 83° 24% - - 42° 97.5° 70.4° - - -
6/26 8:10pm 292 3 G 4 83° 25% - - 44° 97.5° 70.4° - - -
6/26 8:00pm 306 4 G 5 84° 24% - - 43° 97.5° 70.4° - - -
6/26 7:50pm 294 4 G 5 84° 24% - - 43° 97.5° 70.4° - - -
6/26 7:40pm 300 4 G 6 84° 25% - - 45° 97.5° 70.4° - - -
6/26 7:30pm 314 5 G 7 85° 23% - - 44° 97.5° 70.4° - - -
6/26 7:20pm 314 6 G 8 86° 22% - - 43° 97.5° 70.4° - - -
6/26 7:10pm 306 6 G 9 87° 21% - - 42° 97.5° 70.4° - - -
6/26 7:00pm 306 6 G 9 88° 20% - - 41° 97.5° 70.4° - - -
6/26 6:50pm 307 6 G 9 88° 18% - - 40° 97.5° 70.4° - - -
6/26 6:40pm 303 6 G 10 88° 18% - - 39° 97.5° 70.4° - - -
6/26 6:30pm 308 7 G 11 89° 18% - - 39° 97.5° 70.4° - - -
6/26 6:20pm 306 7 G 12 89° 17% - - 39° 97.5° 70.4° - - -
6/26 6:10pm 299 7 G 11 89° 16% - - 38° 97.5° 70.4° - - -
6/26 6:00pm 298 8 G 12 90° 14% - - 34° 97.5° 70.4° - - -
6/26 5:50pm 299 7 G 12 91° 14% - - 35° 97.5° 70.4° - - -
6/26 5:40pm 298 8 G 13 90° 14% - - 35° 97.5° 70.4° - - -
6/26 5:30pm 297 8 G 14 91° 14% - - 34° 97.5° 70.4° - - -
6/26 5:20pm 301 8 G 12 92° 15% - - 38° 97.5° 70.4° - - -
6/26 5:10pm 297 8 G 16 91° 15% - - 37° 97.5° 70.4° - - -
6/26 5:00pm 300 9 G 14 92° 14% - - 36° 97.5° 70.4° - - -
6/26 4:50pm 307 9 G 15 93° 14% - - 36° 97.5° 70.4° - - -
6/26 4:40pm 307 9 G 14 93° 13% - - 35° 97.5° 70.4° - - -
6/26 4:30pm 312 8 G 13 94° 13% - - 36° 97.5° 70.4° - - -
6/26 4:20pm 322 8 G 13 93° 15% - - 38° 97.5° 70.4° - - -
6/26 4:10pm 308 8 G 12 93° 13% - - 36° 97.5° 70.4° - - -
6/26 4:00pm 317 10 G 17 93° 14% - - 37° 97.5° 70.4° - - -
6/26 3:50pm 317 9 G 15 94° 15% - - 40° 97.5° 70.4° - - -
6/26 3:40pm 300 8 G 12 94° 16% - - 40° 97.5° 70.4° - - -
6/26 3:30pm 299 8 G 11 94° 17% - - 42° 97.5° 70.4° - - -
6/26 3:20pm 302 9 G 15 94° 16% - - 42° 97.5° 70.4° - - -
6/26 3:10pm 321 10 G 15 95° 16% - - 42° 97.5° 70.4° - - -
6/26 3:00pm 340 10 G 14 95° 17% - - 43° 97.5° 70.4° - - -
6/26 2:50pm 320 9 G 14 96° 15% - - 40° 97.5° 70.4° - - -
6/26 2:40pm 323 9 G 15 96° 16% - - 43° 97.5° 70.4° - - -
6/26 2:30pm 327 9 G 15 97° 16% - - 44° 97.5° 70.4° - - -
6/26 2:20pm 305 8 G 15 96° 19% - - 47° 97.5° 70.4° - - -
6/26 2:10pm 291 6 G 14 95° 20% - - 48° 96.8° 70.4° - - -
6/26 2:00pm 304 7 G 12 95° 19% - - 47° 96.8° 70.4° - - -
6/26 1:50pm 308 6 G 12 95° 20% - - 48° 96.8° 70.4° - - -
6/26 1:40pm 299 5 G 10 95° 22% - - 51° 96.8° 70.4° - - -
6/26 1:30pm 280 4 G 9 95° 24% - - 52° 96.5° 70.4° - - -
6/26 1:20pm 273 6 G 12 93° 25% - - 52° 94.6° 70.4° - - -
6/26 1:10pm 275 6 G 11 93° 25% - - 51° 94.6° 70.4° - - -
6/26 1:00pm 261 7 G 12 93° 25% - - 52° 94.6° 70.4° - - -
6/26 12:50pm 269 6 G 11 93° 25% - - 52° 94.6° 70.4° - - -
6/26 12:40pm 269 5 G 11 94° 25% - - 52° 94.6° 70.4° - - -
6/26 12:30pm 275 5 G 11 93° 26% - - 53° 93.8° 70.4° - - -
6/26 12:20pm 249 6 G 11 92° 28% - - 54° 93.1° 70.4° - - -
6/26 12:10pm 233 7 G 11 91° 30% - - 55° 91.8° 70.4° - - -
6/26 12:00pm 240 6 G 11 90° 31% - - 56° 91° 70.4° - - -
6/26 11:50am 244 7 G 12 90° 32% - - 56° 90.8° 70.4° - - -
6/26 11:40am 257 7 G 13 89° 33% - - 56° 90.8° 70.4° - - -
6/26 11:30am 252 6 G 12 90° 32% - - 56° 90.8° 70.4° - - -
6/26 11:20am 249 7 G 11 89° 32% - - 55° 90.8° 70.4° - - -
6/26 11:10am 246 7 G 12 90° 31% - - 55° 90.8° 70.4° - - -
6/26 11:00am 248 6 G 12 90° 31% - - 55° 90.8° 70.4° - - -
6/26 10:50am 249 7 G 11 90° 29% - - 54° 90.8° 70.4° - - -
6/26 10:40am 245 5 G 9 90° 28% - - 53° 90.7° 70.4° - - -
6/26 10:30am 249 5 G 9 90° 29% - - 53° 90.7° 70.4° - - -
6/26 10:20am 247 6 G 9 89° 30% - - 53° 90.7° 70.4° - - -
6/26 10:10am 246 6 G 9 89° 30% - - 54° 90.7° 70.4° - - -
6/26 10:00am 240 6 G 8 88° 31% - - 53° 90.7° 70.4° - - -
6/26 9:50am 234 6 G 9 89° 28% - - 52° 90.7° 70.4° - - -
6/26 9:40am 227 4 G 9 90° 24% - - 48° 90.7° 70.4° - - -
6/26 9:30am 161 4 G 7 90° 20% - - 43° 90.5° 70.4° - - -
6/26 9:20am 172 4 G 6 89° 21% - - 45° 89.8° 70.4° - - -
6/26 9:10am 170 4 G 6 89° 22% - - 44° 89° 70.4° - - -
6/26 9:00am 172 4 G 6 88° 22% - - 45° 88.3° 70.4° - - -
6/26 8:50am 170 3 G 5 87° 25% - - 47° 87.9° 70.4° - - -
6/26 8:40am 164 2 G 4 87° 29% - - 50° 87.2° 70.4° - - -
6/26 8:30am 188 1 G 4 86° 31% - - 52° 87° 70.4° - - -
6/26 8:20am 174 2 G 5 86° 28% - - 49° 87° 70.4° - - -
6/26 8:10am 197 1 G 5 86° 27% - - 48° 87° 70.4° - - -
6/26 8:00am 335 0 G 3 84° 31% - - 50° 86° 70.4° - - -
6/26 7:50am 334 1 G 3 84° 29% - - 48° 85.8° 70.4° - - -
6/26 7:40am 92 1 G 3 85° 25% - - 45° 85.8° 70.4° - - -
6/26 7:30am 43 1 G 2 82° 29% - - 47° 82.9° 70.4° - - -
6/26 7:20am 34 1 G 2 81° 32% - - 48° 82.6° 70.4° - - -
6/26 7:10am 40 2 G 3 81° 30% - - 47° 82.6° 70.4° - - -
6/26 7:00am 104 3 G 6 81° 26% - - 43° 82.6° 70.4° - - -
6/26 6:50am 132 7 G 8 79° 30% - - 44° 81.2° 70.4° - - -
6/26 6:40am 138 7 G 8 78° 34% - - 47° 81.2° 70.4° - - -
6/26 6:30am 143 8 G 9 78° 33% - - 46° 81.2° 70.4° - - -
6/26 6:20am 146 9 G 10 78° 33% - - 47° 81.2° 70.4° - - -
6/26 6:10am 142 8 G 9 77° 36% - - 48° 81.2° 70.4° - - -
6/26 6:00am 142 7 G 8 77° 38% - - 49° 81.2° 70.4° - - -